APA weather

Centennial Airport
Denver, Colorado, United States

Public forecast

Using degrees Fahrenheit for public forecast. Weather courtesy of forecast.io.

Current aviation weather report (METAR) for Centennial Airport

Retrieved 2019/10/17 11:53 UTC (43 minutes ago):

KAPA 171153Z 14007KT 10SM BKN220 09/M09 A2997 RMK AO2 SLP098 T00891089 10139 20072 56011

Aviation forecast (TAF) for Centennial Airport

Retrieved 2019/10/17 12:30 UTC (6 minutes ago):

TAF KAPA 171127Z 1712/1812 16005KT P6SM BKN220 FM171500 VRB05KT P6SM BKN220 FM180100 30009KT P6SM SCT220 FM180400 22010KT P6SM FEW150 SCT220